Time,TemperatureF,DewpointF,PressureIn,WindDirection,WindDirectionDegrees,WindSpeedMPH,WindSpeedGustMPH,Humidity,HourlyPrecipIn,Conditions,Clouds,dailyrainin,SolarRadiationWatts/m^2,SoftwareType,DateUTC
2013-03-31 00:12:00,62.0,61.0,-100.00,North,4,1.0,5.0,98,0.00,,,0.72,0.000000,,2013-03-31 10:12:00,
2013-03-31 00:23:00,62.0,61.0,-100.00,North,4,1.0,5.0,98,0.00,,,0.72,0.000000,,2013-03-31 10:23:00,
2013-03-31 00:32:00,62.0,61.0,-100.00,North,4,1.0,5.0,98,0.00,,,0.72,0.000000,,2013-03-31 10:32:00,
2013-03-31 00:42:00,62.0,61.0,-100.00,North,4,1.0,5.0,98,0.00,,,0.72,0.000000,,2013-03-31 10:42:00,
2013-03-31 01:12:00,62.0,61.0,-100.00,North,356,2.0,4.0,98,0.00,,,0.72,0.000000,,2013-03-31 11:12:00,
2013-03-31 01:22:00,62.0,61.0,-100.00,North,356,2.0,4.0,98,0.00,,,0.72,0.000000,,2013-03-31 11:22:00,
2013-03-31 01:32:00,62.0,61.0,-100.00,North,356,2.0,4.0,98,0.00,,,0.72,0.000000,,2013-03-31 11:32:00,
2013-03-31 01:42:00,62.0,61.0,-100.00,North,356,2.0,4.0,98,0.00,,,0.72,0.000000,,2013-03-31 11:42:00,
2013-03-31 02:12:00,62.0,61.0,-100.00,NW,326,3.0,4.0,98,0.00,,,0.72,0.000000,,2013-03-31 12:12:00,
2013-03-31 02:22:00,62.0,61.0,-100.00,NW,326,3.0,4.0,98,0.00,,,0.72,0.000000,,2013-03-31 12:22:00,
2013-03-31 02:32:00,62.0,61.0,-100.00,NW,326,3.0,4.0,98,0.00,,,0.72,0.000000,,2013-03-31 12:32:00,
2013-03-31 02:42:00,62.0,61.0,-100.00,NW,326,3.0,4.0,98,0.00,,,0.72,0.000000,,2013-03-31 12:42:00,
2013-03-31 03:12:00,61.0,61.0,-100.00,North,349,1.0,5.0,99,0.00,,,0.72,0.000000,,2013-03-31 13:12:00,
2013-03-31 03:22:00,61.0,61.0,-100.00,North,349,1.0,5.0,99,0.00,,,0.72,0.000000,,2013-03-31 13:22:00,
2013-03-31 03:32:00,61.0,61.0,-100.00,North,349,1.0,5.0,99,0.00,,,0.72,0.000000,,2013-03-31 13:32:00,
2013-03-31 03:42:00,61.0,61.0,-100.00,North,349,1.0,5.0,99,0.00,,,0.72,0.000000,,2013-03-31 13:42:00,
2013-03-31 04:12:00,62.0,62.0,-100.00,NNW,336,3.0,4.0,99,0.00,,,0.72,0.000000,,2013-03-31 14:12:00,
2013-03-31 04:22:00,62.0,62.0,-100.00,NNW,336,3.0,4.0,99,0.00,,,0.72,0.000000,,2013-03-31 14:22:00,
2013-03-31 04:32:00,62.0,62.0,-100.00,NNW,336,3.0,4.0,99,0.00,,,0.72,0.000000,,2013-03-31 14:32:00,
2013-03-31 04:42:00,62.0,62.0,-100.00,NNW,336,3.0,4.0,99,0.00,,,0.72,0.000000,,2013-03-31 14:42:00,
2013-03-31 05:12:00,61.0,60.0,-100.00,NW,323,4.0,5.0,98,0.00,,,-99.99,0.000000,,2013-03-31 15:12:00,
2013-03-31 05:22:00,61.0,60.0,-100.00,NW,323,4.0,5.0,98,0.00,,,-99.99,0.000000,,2013-03-31 15:22:00,
2013-03-31 05:33:00,61.0,60.0,-100.00,NW,323,4.0,5.0,98,0.00,,,-99.99,0.000000,,2013-03-31 15:33:00,
2013-03-31 05:43:00,61.0,60.0,-100.00,NW,323,4.0,5.0,98,0.00,,,-99.99,0.000000,,2013-03-31 15:43:00,
2013-03-31 06:13:00,62.0,61.0,-100.00,North,357,3.0,5.0,98,0.00,,,0.71,0.000000,,2013-03-31 16:13:00,
2013-03-31 06:22:00,62.0,61.0,-100.00,North,357,3.0,5.0,98,0.00,,,0.71,0.000000,,2013-03-31 16:22:00,
2013-03-31 06:33:00,62.0,61.0,-100.00,North,357,3.0,5.0,98,0.00,,,0.71,0.000000,,2013-03-31 16:33:00,
2013-03-31 06:42:00,62.0,61.0,-100.00,North,357,3.0,5.0,98,0.00,,,0.71,0.000000,,2013-03-31 16:42:00,
2013-03-31 07:12:00,62.0,61.0,-100.00,North,7,2.0,6.0,98,0.00,,,0.71,6.000000,,2013-03-31 17:12:00,
2013-03-31 07:22:00,62.0,61.0,-100.00,North,7,2.0,6.0,98,0.00,,,0.71,6.000000,,2013-03-31 17:22:00,
2013-03-31 07:32:00,62.0,61.0,-100.00,North,7,2.0,6.0,98,0.00,,,0.71,6.000000,,2013-03-31 17:32:00,
2013-03-31 07:42:00,62.0,61.0,-100.00,North,7,2.0,6.0,98,0.00,,,0.71,6.000000,,2013-03-31 17:42:00,
2013-03-31 08:12:00,65.0,64.0,-100.00,North,357,1.0,5.0,95,0.00,,,0.71,102.000000,,2013-03-31 18:12:00,
2013-03-31 08:22:00,65.0,64.0,-100.00,North,357,1.0,5.0,95,0.00,,,0.71,102.000000,,2013-03-31 18:22:00,
2013-03-31 08:32:00,65.0,64.0,-100.00,North,357,1.0,5.0,95,0.00,,,0.71,102.000000,,2013-03-31 18:32:00,
2013-03-31 08:42:00,65.0,64.0,-100.00,North,357,1.0,5.0,95,0.00,,,0.71,102.000000,,2013-03-31 18:42:00,
2013-03-31 09:12:00,70.0,64.0,-100.00,ESE,111,1.0,4.0,81,0.00,,,0.71,251.000000,,2013-03-31 19:12:00,
2013-03-31 09:22:00,70.0,64.0,-100.00,ESE,111,1.0,4.0,81,0.00,,,0.71,251.000000,,2013-03-31 19:22:00,
2013-03-31 09:32:00,70.0,64.0,-100.00,ESE,111,1.0,4.0,81,0.00,,,0.71,251.000000,,2013-03-31 19:32:00,
2013-03-31 09:42:00,70.0,64.0,-100.00,ESE,111,1.0,4.0,81,0.00,,,0.71,251.000000,,2013-03-31 19:42:00,
2013-03-31 10:12:00,70.0,64.0,-100.00,SSW,209,5.0,9.0,81,0.00,,,0.71,395.000000,,2013-03-31 20:12:00,
2013-03-31 10:22:00,70.0,64.0,-100.00,SSW,209,5.0,9.0,81,0.00,,,0.71,395.000000,,2013-03-31 20:22:00,
2013-03-31 10:33:00,70.0,64.0,-100.00,SSW,209,5.0,9.0,81,0.00,,,0.71,395.000000,,2013-03-31 20:33:00,
2013-03-31 10:42:00,70.0,64.0,-100.00,SSW,209,5.0,9.0,81,0.00,,,0.71,395.000000,,2013-03-31 20:42:00,
2013-03-31 11:12:00,69.0,63.0,-100.00,SSW,194,7.0,10.0,82,0.00,,,0.71,410.000000,,2013-03-31 21:12:00,
2013-03-31 11:22:00,69.0,63.0,-100.00,SSW,194,7.0,10.0,82,0.00,,,0.71,410.000000,,2013-03-31 21:22:00,
2013-03-31 11:33:00,69.0,63.0,-100.00,SSW,194,7.0,10.0,82,0.00,,,0.71,410.000000,,2013-03-31 21:33:00,
2013-03-31 11:43:00,69.0,63.0,-100.00,SSW,194,7.0,10.0,82,0.00,,,0.71,410.000000,,2013-03-31 21:43:00,
2013-03-31 12:13:00,68.0,63.0,-100.00,South,190,7.0,12.0,85,0.00,,,0.70,433.000000,,2013-03-31 22:13:00,
2013-03-31 12:23:00,68.0,63.0,-100.00,South,190,7.0,12.0,85,0.00,,,0.70,433.000000,,2013-03-31 22:23:00,
2013-03-31 12:33:00,68.0,63.0,-100.00,South,190,7.0,12.0,85,0.00,,,0.70,433.000000,,2013-03-31 22:33:00,
2013-03-31 12:42:00,68.0,63.0,-100.00,South,190,7.0,12.0,85,0.00,,,0.70,433.000000,,2013-03-31 22:42:00,
2013-03-31 13:12:00,67.0,64.0,-100.00,SSW,193,7.0,10.0,91,0.01,,,0.71,123.000000,,2013-03-31 23:12:00,
2013-03-31 13:22:00,67.0,64.0,-100.00,SSW,193,7.0,10.0,91,0.01,,,0.71,123.000000,,2013-03-31 23:22:00,
2013-03-31 13:32:00,67.0,64.0,-100.00,SSW,193,7.0,10.0,91,0.01,,,0.71,123.000000,,2013-03-31 23:32:00,
2013-03-31 13:42:00,67.0,64.0,-100.00,SSW,193,7.0,10.0,91,0.01,,,0.71,123.000000,,2013-03-31 23:42:00,
2013-03-31 14:12:00,68.0,64.0,-100.00,SSW,205,6.0,9.0,87,0.01,,,0.72,266.000000,,2013-04-01 00:12:00,
2013-03-31 14:22:00,68.0,64.0,-100.00,SSW,205,6.0,9.0,87,0.01,,,0.72,266.000000,,2013-04-01 00:22:00,
2013-03-31 14:32:00,68.0,64.0,-100.00,SSW,205,6.0,9.0,87,0.01,,,0.72,266.000000,,2013-04-01 00:32:00,
2013-03-31 14:42:00,68.0,64.0,-100.00,SSW,205,6.0,9.0,87,0.01,,,0.72,266.000000,,2013-04-01 00:42:00,
2013-03-31 15:12:00,66.0,62.0,-100.00,WSW,257,4.0,8.0,88,0.00,,,0.65,216.000000,,2013-04-01 01:12:00,
2013-03-31 15:22:00,66.0,62.0,-100.00,WSW,257,4.0,8.0,88,0.00,,,0.65,216.000000,,2013-04-01 01:22:00,
2013-03-31 15:32:00,66.0,62.0,-100.00,WSW,257,4.0,8.0,88,0.00,,,0.65,216.000000,,2013-04-01 01:32:00,
2013-03-31 15:42:00,66.0,62.0,-100.00,WSW,257,4.0,8.0,88,0.00,,,0.65,216.000000,,2013-04-01 01:42:00,
2013-03-31 16:12:00,66.0,62.0,-100.00,SW,221,2.0,5.0,87,0.00,,,0.61,69.000000,,2013-04-01 02:12:00,
2013-03-31 16:22:00,66.0,62.0,-100.00,SW,221,2.0,5.0,87,0.00,,,0.61,69.000000,,2013-04-01 02:22:00,
2013-03-31 16:32:00,66.0,62.0,-100.00,SW,221,2.0,5.0,87,0.00,,,0.61,69.000000,,2013-04-01 02:32:00,
2013-03-31 16:42:00,66.0,62.0,-100.00,SW,221,2.0,5.0,87,0.00,,,0.61,69.000000,,2013-04-01 02:42:00,
2013-03-31 17:12:00,65.0,63.0,-100.00,SSW,206,0.0,5.0,94,0.01,,,0.20,51.000000,,2013-04-01 03:12:00,
2013-03-31 17:22:00,65.0,63.0,-100.00,SSW,206,0.0,5.0,94,0.01,,,0.20,51.000000,,2013-04-01 03:22:00,
2013-03-31 17:33:00,65.0,63.0,-100.00,SSW,206,0.0,5.0,94,0.01,,,0.20,51.000000,,2013-04-01 03:33:00,
2013-03-31 17:43:00,65.0,63.0,-100.00,SSW,206,0.0,5.0,94,0.01,,,0.20,51.000000,,2013-04-01 03:43:00,
2013-03-31 18:13:00,65.0,63.0,-100.00,SSW,193,5.0,10.0,93,0.00,,,0.17,47.000000,,2013-04-01 04:13:00,
2013-03-31 18:23:00,65.0,63.0,-100.00,SSW,193,5.0,10.0,93,0.00,,,0.17,47.000000,,2013-04-01 04:23:00,
2013-03-31 18:32:00,65.0,63.0,-100.00,SSW,193,5.0,10.0,93,0.00,,,0.17,47.000000,,2013-04-01 04:32:00,
2013-03-31 18:43:00,65.0,63.0,-100.00,SSW,193,5.0,10.0,93,0.00,,,0.17,47.000000,,2013-04-01 04:43:00,
2013-03-31 19:12:00,64.0,63.0,-100.00,WNW,291,3.0,9.0,97,0.02,,,0.11,14.000000,,2013-04-01 05:12:00,
2013-03-31 19:22:00,64.0,63.0,-100.00,WNW,291,3.0,9.0,97,0.02,,,0.11,14.000000,,2013-04-01 05:22:00,
2013-03-31 19:32:00,64.0,63.0,-100.00,WNW,291,3.0,9.0,97,0.02,,,0.11,14.000000,,2013-04-01 05:32:00,
2013-03-31 19:42:00,64.0,63.0,-100.00,WNW,291,3.0,9.0,97,0.02,,,0.11,14.000000,,2013-04-01 05:42:00,
2013-03-31 20:12:00,63.0,62.0,-100.00,West,273,4.0,7.0,96,0.01,,,0.08,0.000000,,2013-04-01 06:12:00,
2013-03-31 20:22:00,63.0,62.0,-100.00,West,273,4.0,7.0,96,0.01,,,0.08,0.000000,,2013-04-01 06:22:00,
2013-03-31 20:33:00,63.0,62.0,-100.00,West,273,4.0,7.0,96,0.01,,,0.08,0.000000,,2013-04-01 06:33:00,
2013-03-31 20:42:00,63.0,62.0,-100.00,West,273,4.0,7.0,96,0.01,,,0.08,0.000000,,2013-04-01 06:42:00,
2013-03-31 21:12:00,63.0,62.0,-100.00,West,278,3.0,4.0,96,0.00,,,0.07,0.000000,,2013-04-01 07:12:00,
2013-03-31 21:22:00,63.0,62.0,-100.00,West,278,3.0,4.0,96,0.00,,,0.07,0.000000,,2013-04-01 07:22:00,
2013-03-31 21:32:00,63.0,62.0,-100.00,West,278,3.0,4.0,96,0.00,,,0.07,0.000000,,2013-04-01 07:32:00,
2013-03-31 21:42:00,63.0,62.0,-100.00,West,278,3.0,4.0,96,0.00,,,0.07,0.000000,,2013-04-01 07:42:00,
2013-03-31 22:12:00,62.0,61.0,-100.00,NNW,331,1.0,4.0,97,0.00,,,0.06,0.000000,,2013-04-01 08:12:00,
2013-03-31 22:22:00,62.0,61.0,-100.00,NNW,331,1.0,4.0,97,0.00,,,0.06,0.000000,,2013-04-01 08:22:00,
2013-03-31 22:32:00,62.0,61.0,-100.00,NNW,331,1.0,4.0,97,0.00,,,0.06,0.000000,,2013-04-01 08:32:00,
2013-03-31 22:43:00,62.0,61.0,-100.00,NNW,331,1.0,4.0,97,0.00,,,0.06,0.000000,,2013-04-01 08:43:00,
2013-03-31 23:12:00,62.0,61.0,-100.00,WNW,301,3.0,5.0,96,0.00,,,0.06,0.000000,,2013-04-01 09:12:00,
2013-03-31 23:22:00,62.0,61.0,-100.00,WNW,301,3.0,5.0,96,0.00,,,0.06,0.000000,,2013-04-01 09:22:00,
2013-03-31 23:33:00,62.0,61.0,-100.00,WNW,301,3.0,5.0,96,0.00,,,0.06,0.000000,,2013-04-01 09:33:00,
2013-03-31 23:42:00,62.0,61.0,-100.00,WNW,301,3.0,5.0,96,0.00,,,0.06,0.000000,,2013-04-01 09:42:00,